Hovedside
METAR-TAF:

METAR-TAF

Lufthavner :

Le Touquet, Frankrike

breddegrad: 50-30-53N, lengdegrad: 001-37-39E, høyde over havet: 6 m

Gjeldene værobservasjon

Denne rapporten ble laget for 23 minutter siden, klokken 14:30 UTC
Vind 9 kt fra Nordvest
Temperatur 25°C
Luftfuktighet 57%
Trykk 1020 hPa
Sikt 10 km eller mer
ingen skyer under 1500 m og ingen bygeskyer

METAR: LFAT 181430Z AUTO 32009KT CAVOK 25/16 Q1020 NOSIG

Tid: 16:53 (14:53 UTC)

Varsel

Denne rapporten ble laget for 3 timer og 53 minutter siden, klokken 11:00 UTC
Varsel gyldig fra 18. klokken 12 UTC til 18. klokken 21 UTC
Vind 4 kt fra Sør-sørøst
Sikt 10 km eller mer
ingen skyer under 1500 m og ingen bygeskyer

TAF: LFAT 181100Z 1812/1821 16004KT CAVOK

Værobservasjoner og værvarsel for over 4000 flyplasser (METAR- og TAF-rapporter).

Tilgjengelige stasjoner er representert av de røde og gule prikkene på kartet.

Hold musepekeren over prikken for å se navnet på stasjonen.

Klikk så for å se værobservasjoner og -varsler.

For å forandre kartet kan du klikke på den grønne knappen med svart kryss for å zoome inn, på den grønne knappen med strek for å zoome ut, eller på de grønne pilene for å se tilstøtende kart.


METAR-TAF: